EmailTwitter


Surface observations / Quebec / CYUL (71627)

Regions: Quebec | Canada | USA | Europe | France | UK | Elsewhere
Station
Display
Info & Location for CYUL (71627) | Help decoding METAR

Weather Conditions observed on 2018/06/19 at 23:00 UTC at MONTREAL INTL A, QB (CYUL)

Sky conditions: few clouds.

Temperature: 23.0 Celsius.

Dewpoint: 8.0 Celsius.

Relative Humidity: 38%

Humidex: 23.

Winds: West-northwest at 17 km/h or 9 knots.

Gust: 28 km/h or 15 knots.

Mean Sea level Pressure: 101.14 kilopascals.

Altimeter Setting (QNH): 101.12 kilopascals or 29.86 inches of mercury.

Horizontal visibility: 30.00 statute miles or 48.00 kilometers.

Coded METAR:

CYUL 192300Z 29009G15KT 250V320 30SM FEW240 23/08 A2986 RMK CI1 SLP114 DENSITY

ALT 1200FT=